sensor_id;sensor_type;location;lat;lon;timestamp;P1;durP1;ratioP1;P2;durP2;ratioP2
32138;SDS011;18644;48.700;9.210;2023-05-10T00:02:11;0.50;;;0.50;;
32138;SDS011;18644;48.700;9.210;2023-05-10T00:04:38;0.47;;;0.47;;
32138;SDS011;18644;48.700;9.210;2023-05-10T00:07:04;0.22;;;0.22;;
32138;SDS011;18644;48.700;9.210;2023-05-10T00:09:33;0.70;;;0.55;;
32138;SDS011;18644;48.700;9.210;2023-05-10T00:12:00;0.95;;;0.70;;
32138;SDS011;18644;48.700;9.210;2023-05-10T00:14:26;1.85;;;0.60;;
32138;SDS011;18644;48.700;9.210;2023-05-10T00:16:53;1.75;;;0.40;;
32138;SDS011;18644;48.700;9.210;2023-05-10T00:19:20;0.47;;;0.47;;
32138;SDS011;18644;48.700;9.210;2023-05-10T00:21:47;0.50;;;0.50;;
32138;SDS011;18644;48.700;9.210;2023-05-10T00:24:14;0.50;;;0.50;;
32138;SDS011;18644;48.700;9.210;2023-05-10T00:26:42;0.50;;;0.50;;
32138;SDS011;18644;48.700;9.210;2023-05-10T00:29:09;0.40;;;0.40;;
32138;SDS011;18644;48.700;9.210;2023-05-10T00:31:36;1.85;;;0.40;;
32138;SDS011;18644;48.700;9.210;2023-05-10T00:34:03;0.47;;;0.35;;
32138;SDS011;18644;48.700;9.210;2023-05-10T00:36:30;0.30;;;0.30;;
32138;SDS011;18644;48.700;9.210;2023-05-10T00:38:57;0.40;;;0.40;;
32138;SDS011;18644;48.700;9.210;2023-05-10T00:41:23;0.40;;;0.40;;
32138;SDS011;18644;48.700;9.210;2023-05-10T00:43:52;0.30;;;0.30;;
32138;SDS011;18644;48.700;9.210;2023-05-10T00:46:19;0.88;;;0.80;;
32138;SDS011;18644;48.700;9.210;2023-05-10T00:48:46;0.30;;;0.30;;
32138;SDS011;18644;48.700;9.210;2023-05-10T00:51:14;0.30;;;0.30;;
32138;SDS011;18644;48.700;9.210;2023-05-10T00:53:41;0.30;;;0.30;;
32138;SDS011;18644;48.700;9.210;2023-05-10T00:56:08;0.30;;;0.30;;
32138;SDS011;18644;48.700;9.210;2023-05-10T00:58:35;0.20;;;0.20;;
32138;SDS011;18644;48.700;9.210;2023-05-10T01:01:04;0.30;;;0.30;;
32138;SDS011;18644;48.700;9.210;2023-05-10T01:03:32;4.85;;;0.95;;
32138;SDS011;18644;48.700;9.210;2023-05-10T01:05:59;0.20;;;0.20;;
32138;SDS011;18644;48.700;9.210;2023-05-10T01:08:26;0.80;;;0.30;;
32138;SDS011;18644;48.700;9.210;2023-05-10T01:10:53;0.68;;;0.30;;
32138;SDS011;18644;48.700;9.210;2023-05-10T01:13:23;0.30;;;0.30;;
32138;SDS011;18644;48.700;9.210;2023-05-10T01:15:57;0.30;;;0.30;;
32138;SDS011;18644;48.700;9.210;2023-05-10T01:18:28;0.30;;;0.30;;
32138;SDS011;18644;48.700;9.210;2023-05-10T01:23:50;0.30;;;0.30;;
32138;SDS011;18644;48.700;9.210;2023-05-10T01:26:59;0.38;;;0.38;;
32138;SDS011;18644;48.700;9.210;2023-05-10T01:32:37;0.30;;;0.30;;
32138;SDS011;18644;48.700;9.210;2023-05-10T01:35:15;0.30;;;0.30;;
32138;SDS011;18644;48.700;9.210;2023-05-10T01:37:50;0.30;;;0.30;;
32138;SDS011;18644;48.700;9.210;2023-05-10T01:40:29;0.50;;;0.30;;
32138;SDS011;18644;48.700;9.210;2023-05-10T01:43:02;0.43;;;0.30;;
32138;SDS011;18644;48.700;9.210;2023-05-10T01:45:37;0.30;;;0.30;;
32138;SDS011;18644;48.700;9.210;2023-05-10T01:48:13;0.30;;;0.30;;
32138;SDS011;18644;48.700;9.210;2023-05-10T01:50:41;0.30;;;0.30;;
32138;SDS011;18644;48.700;9.210;2023-05-10T01:53:10;0.30;;;0.30;;
32138;SDS011;18644;48.700;9.210;2023-05-10T01:55:40;0.82;;;0.40;;
32138;SDS011;18644;48.700;9.210;2023-05-10T01:58:13;0.30;;;0.30;;
32138;SDS011;18644;48.700;9.210;2023-05-10T02:00:46;0.43;;;0.43;;
32138;SDS011;18644;48.700;9.210;2023-05-10T02:03:17;0.25;;;0.25;;
32138;SDS011;18644;48.700;9.210;2023-05-10T02:05:46;0.30;;;0.30;;
32138;SDS011;18644;48.700;9.210;2023-05-10T02:08:16;0.75;;;0.40;;
32138;SDS011;18644;48.700;9.210;2023-05-10T02:10:45;0.30;;;0.30;;
32138;SDS011;18644;48.700;9.210;2023-05-10T02:13:15;0.20;;;0.20;;
32138;SDS011;18644;48.700;9.210;2023-05-10T02:15:43;0.30;;;0.30;;
32138;SDS011;18644;48.700;9.210;2023-05-10T02:18:13;0.30;;;0.30;;
32138;SDS011;18644;48.700;9.210;2023-05-10T02:20:42;0.30;;;0.30;;
32138;SDS011;18644;48.700;9.210;2023-05-10T02:23:11;0.60;;;0.40;;
32138;SDS011;18644;48.700;9.210;2023-05-10T02:25:39;0.30;;;0.30;;
32138;SDS011;18644;48.700;9.210;2023-05-10T02:28:09;0.30;;;0.30;;
32138;SDS011;18644;48.700;9.210;2023-05-10T02:30:38;0.30;;;0.30;;
32138;SDS011;18644;48.700;9.210;2023-05-10T02:33:05;3.20;;;0.40;;
32138;SDS011;18644;48.700;9.210;2023-05-10T02:35:33;2.25;;;0.40;;
32138;SDS011;18644;48.700;9.210;2023-05-10T02:38:02;0.30;;;0.30;;
32138;SDS011;18644;48.700;9.210;2023-05-10T02:40:30;0.40;;;0.40;;
32138;SDS011;18644;48.700;9.210;2023-05-10T02:42:59;0.30;;;0.30;;
32138;SDS011;18644;48.700;9.210;2023-05-10T02:45:29;0.30;;;0.30;;
32138;SDS011;18644;48.700;9.210;2023-05-10T02:47:58;0.50;;;0.40;;
32138;SDS011;18644;48.700;9.210;2023-05-10T02:50:25;0.90;;;0.30;;
32138;SDS011;18644;48.700;9.210;2023-05-10T02:52:55;0.30;;;0.30;;
32138;SDS011;18644;48.700;9.210;2023-05-10T02:55:31;0.50;;;0.50;;
32138;SDS011;18644;48.700;9.210;2023-05-10T02:58:03;0.35;;;0.35;;
32138;SDS011;18644;48.700;9.210;2023-05-10T03:00:30;0.47;;;0.47;;
32138;SDS011;18644;48.700;9.210;2023-05-10T03:02:58;0.40;;;0.40;;
32138;SDS011;18644;48.700;9.210;2023-05-10T03:05:25;0.70;;;0.70;;
32138;SDS011;18644;48.700;9.210;2023-05-10T03:07:52;0.30;;;0.30;;
32138;SDS011;18644;48.700;9.210;2023-05-10T03:10:21;0.40;;;0.40;;
32138;SDS011;18644;48.700;9.210;2023-05-10T03:12:57;0.40;;;0.40;;
32138;SDS011;18644;48.700;9.210;2023-05-10T03:15:37;0.30;;;0.30;;
32138;SDS011;18644;48.700;9.210;2023-05-10T03:18:09;0.65;;;0.50;;
32138;SDS011;18644;48.700;9.210;2023-05-10T03:20:41;0.45;;;0.35;;
32138;SDS011;18644;48.700;9.210;2023-05-10T03:23:11;0.30;;;0.30;;
32138;SDS011;18644;48.700;9.210;2023-05-10T03:25:49;0.38;;;0.38;;
32138;SDS011;18644;48.700;9.210;2023-05-10T03:28:16;0.73;;;0.70;;
32138;SDS011;18644;48.700;9.210;2023-05-10T03:30:45;3.85;;;1.95;;
32138;SDS011;18644;48.700;9.210;2023-05-10T03:33:13;4.85;;;2.63;;
32138;SDS011;18644;48.700;9.210;2023-05-10T03:35:40;3.67;;;2.38;;
32138;SDS011;18644;48.700;9.210;2023-05-10T03:38:07;2.95;;;1.70;;
32138;SDS011;18644;48.700;9.210;2023-05-10T03:40:34;2.03;;;1.17;;
32138;SDS011;18644;48.700;9.210;2023-05-10T03:43:02;1.35;;;1.00;;
32138;SDS011;18644;48.700;9.210;2023-05-10T03:45:29;1.45;;;0.70;;
32138;SDS011;18644;48.700;9.210;2023-05-10T03:47:56;0.50;;;0.50;;
32138;SDS011;18644;48.700;9.210;2023-05-10T03:50:24;1.20;;;0.60;;
32138;SDS011;18644;48.700;9.210;2023-05-10T03:52:51;2.22;;;0.40;;
32138;SDS011;18644;48.700;9.210;2023-05-10T03:55:18;1.15;;;0.60;;
32138;SDS011;18644;48.700;9.210;2023-05-10T03:57:45;0.40;;;0.40;;
32138;SDS011;18644;48.700;9.210;2023-05-10T04:00:16;1.15;;;0.45;;
32138;SDS011;18644;48.700;9.210;2023-05-10T04:02:43;0.50;;;0.50;;
32138;SDS011;18644;48.700;9.210;2023-05-10T04:05:10;2.15;;;0.38;;
32138;SDS011;18644;48.700;9.210;2023-05-10T04:07:37;0.45;;;0.45;;
32138;SDS011;18644;48.700;9.210;2023-05-10T04:10:04;0.40;;;0.40;;
32138;SDS011;18644;48.700;9.210;2023-05-10T04:12:32;0.40;;;0.40;;
32138;SDS011;18644;48.700;9.210;2023-05-10T04:14:59;0.60;;;0.60;;
32138;SDS011;18644;48.700;9.210;2023-05-10T04:17:27;0.40;;;0.40;;
32138;SDS011;18644;48.700;9.210;2023-05-10T04:19:55;0.70;;;0.40;;
32138;SDS011;18644;48.700;9.210;2023-05-10T04:22:22;0.50;;;0.50;;
32138;SDS011;18644;48.700;9.210;2023-05-10T04:24:49;0.50;;;0.50;;
32138;SDS011;18644;48.700;9.210;2023-05-10T04:27:16;0.47;;;0.47;;
32138;SDS011;18644;48.700;9.210;2023-05-10T04:29:42;1.77;;;0.50;;
32138;SDS011;18644;48.700;9.210;2023-05-10T04:32:09;0.52;;;0.50;;
32138;SDS011;18644;48.700;9.210;2023-05-10T04:34:38;0.60;;;0.45;;
32138;SDS011;18644;48.700;9.210;2023-05-10T04:37:05;0.43;;;0.43;;
32138;SDS011;18644;48.700;9.210;2023-05-10T04:39:32;0.40;;;0.40;;
32138;SDS011;18644;48.700;9.210;2023-05-10T04:42:00;0.35;;;0.35;;
32138;SDS011;18644;48.700;9.210;2023-05-10T04:44:27;0.50;;;0.50;;
32138;SDS011;18644;48.700;9.210;2023-05-10T04:46:54;0.50;;;0.50;;
32138;SDS011;18644;48.700;9.210;2023-05-10T04:49:21;1.13;;;0.50;;
32138;SDS011;18644;48.700;9.210;2023-05-10T04:51:49;1.75;;;0.57;;
32138;SDS011;18644;48.700;9.210;2023-05-10T04:54:16;0.50;;;0.50;;
32138;SDS011;18644;48.700;9.210;2023-05-10T04:56:43;0.52;;;0.52;;
32138;SDS011;18644;48.700;9.210;2023-05-10T04:59:10;0.45;;;0.45;;
32138;SDS011;18644;48.700;9.210;2023-05-10T05:01:37;1.50;;;0.50;;
32138;SDS011;18644;48.700;9.210;2023-05-10T05:04:04;0.40;;;0.40;;
32138;SDS011;18644;48.700;9.210;2023-05-10T05:06:31;0.50;;;0.50;;
32138;SDS011;18644;48.700;9.210;2023-05-10T05:09:00;0.43;;;0.40;;
32138;SDS011;18644;48.700;9.210;2023-05-10T05:11:27;3.78;;;0.50;;
32138;SDS011;18644;48.700;9.210;2023-05-10T05:13:54;0.82;;;0.52;;
32138;SDS011;18644;48.700;9.210;2023-05-10T05:16:20;0.80;;;0.50;;
32138;SDS011;18644;48.700;9.210;2023-05-10T05:18:47;0.50;;;0.50;;
32138;SDS011;18644;48.700;9.210;2023-05-10T05:21:14;0.80;;;0.60;;
32138;SDS011;18644;48.700;9.210;2023-05-10T05:23:42;0.50;;;0.50;;
32138;SDS011;18644;48.700;9.210;2023-05-10T05:26:10;0.50;;;0.50;;
32138;SDS011;18644;48.700;9.210;2023-05-10T05:28:37;0.90;;;0.60;;
32138;SDS011;18644;48.700;9.210;2023-05-10T05:31:04;2.78;;;0.50;;
32138;SDS011;18644;48.700;9.210;2023-05-10T05:33:32;0.50;;;0.50;;
32138;SDS011;18644;48.700;9.210;2023-05-10T05:36:00;0.50;;;0.50;;
32138;SDS011;18644;48.700;9.210;2023-05-10T05:38:30;0.50;;;0.50;;
32138;SDS011;18644;48.700;9.210;2023-05-10T05:40:58;1.05;;;0.55;;
32138;SDS011;18644;48.700;9.210;2023-05-10T05:43:26;1.75;;;0.77;;
32138;SDS011;18644;48.700;9.210;2023-05-10T05:45:53;0.73;;;0.73;;
32138;SDS011;18644;48.700;9.210;2023-05-10T05:48:20;0.60;;;0.52;;
32138;SDS011;18644;48.700;9.210;2023-05-10T05:50:47;0.57;;;0.57;;
32138;SDS011;18644;48.700;9.210;2023-05-10T05:53:15;0.60;;;0.60;;
32138;SDS011;18644;48.700;9.210;2023-05-10T05:55:50;0.52;;;0.52;;
32138;SDS011;18644;48.700;9.210;2023-05-10T05:58:18;0.50;;;0.50;;
32138;SDS011;18644;48.700;9.210;2023-05-10T06:00:47;0.60;;;0.60;;
32138;SDS011;18644;48.700;9.210;2023-05-10T06:03:14;5.15;;;0.50;;
32138;SDS011;18644;48.700;9.210;2023-05-10T06:05:41;0.50;;;0.50;;
32138;SDS011;18644;48.700;9.210;2023-05-10T06:08:07;3.45;;;1.42;;
32138;SDS011;18644;48.700;9.210;2023-05-10T06:10:34;0.63;;;0.63;;
32138;SDS011;18644;48.700;9.210;2023-05-10T06:13:01;0.50;;;0.50;;
32138;SDS011;18644;48.700;9.210;2023-05-10T06:15:28;0.50;;;0.50;;
32138;SDS011;18644;48.700;9.210;2023-05-10T06:17:56;0.93;;;0.60;;
32138;SDS011;18644;48.700;9.210;2023-05-10T06:20:23;0.55;;;0.50;;
32138;SDS011;18644;48.700;9.210;2023-05-10T06:22:50;0.60;;;0.60;;
32138;SDS011;18644;48.700;9.210;2023-05-10T06:25:17;0.60;;;0.60;;
32138;SDS011;18644;48.700;9.210;2023-05-10T06:27:44;0.60;;;0.50;;
32138;SDS011;18644;48.700;9.210;2023-05-10T06:30:11;0.80;;;0.60;;
32138;SDS011;18644;48.700;9.210;2023-05-10T06:32:40;0.60;;;0.60;;
32138;SDS011;18644;48.700;9.210;2023-05-10T06:35:10;0.52;;;0.52;;
32138;SDS011;18644;48.700;9.210;2023-05-10T06:37:37;0.60;;;0.57;;
32138;SDS011;18644;48.700;9.210;2023-05-10T06:40:05;0.50;;;0.50;;
32138;SDS011;18644;48.700;9.210;2023-05-10T06:42:34;3.05;;;0.73;;
32138;SDS011;18644;48.700;9.210;2023-05-10T06:45:01;0.73;;;0.50;;
32138;SDS011;18644;48.700;9.210;2023-05-10T06:47:28;0.57;;;0.57;;
32138;SDS011;18644;48.700;9.210;2023-05-10T06:49:55;0.57;;;0.50;;
32138;SDS011;18644;48.700;9.210;2023-05-10T06:52:23;0.85;;;0.60;;
32138;SDS011;18644;48.700;9.210;2023-05-10T06:54:50;0.70;;;0.70;;
32138;SDS011;18644;48.700;9.210;2023-05-10T06:57:17;2.05;;;0.63;;
32138;SDS011;18644;48.700;9.210;2023-05-10T06:59:44;0.50;;;0.50;;
32138;SDS011;18644;48.700;9.210;2023-05-10T07:02:11;0.60;;;0.50;;
32138;SDS011;18644;48.700;9.210;2023-05-10T07:04:39;0.50;;;0.50;;
32138;SDS011;18644;48.700;9.210;2023-05-10T07:07:06;0.70;;;0.70;;
32138;SDS011;18644;48.700;9.210;2023-05-10T07:09:35;0.75;;;0.75;;
32138;SDS011;18644;48.700;9.210;2023-05-10T07:12:01;0.55;;;0.50;;
32138;SDS011;18644;48.700;9.210;2023-05-10T07:14:29;1.10;;;0.73;;
32138;SDS011;18644;48.700;9.210;2023-05-10T07:16:56;0.70;;;0.60;;
32138;SDS011;18644;48.700;9.210;2023-05-10T07:19:23;0.70;;;0.68;;
32138;SDS011;18644;48.700;9.210;2023-05-10T07:21:49;1.05;;;0.50;;
32138;SDS011;18644;48.700;9.210;2023-05-10T07:24:16;1.33;;;0.60;;
32138;SDS011;18644;48.700;9.210;2023-05-10T07:26:45;0.82;;;0.80;;
32138;SDS011;18644;48.700;9.210;2023-05-10T07:29:11;0.52;;;0.52;;
32138;SDS011;18644;48.700;9.210;2023-05-10T07:31:38;2.63;;;1.02;;
32138;SDS011;18644;48.700;9.210;2023-05-10T07:34:06;1.00;;;0.80;;
32138;SDS011;18644;48.700;9.210;2023-05-10T07:36:33;3.33;;;0.57;;
32138;SDS011;18644;48.700;9.210;2023-05-10T07:39:00;1.02;;;0.63;;
32138;SDS011;18644;48.700;9.210;2023-05-10T07:41:28;0.77;;;0.63;;
32138;SDS011;18644;48.700;9.210;2023-05-10T07:43:56;0.55;;;0.55;;
32138;SDS011;18644;48.700;9.210;2023-05-10T07:46:23;1.10;;;0.50;;
32138;SDS011;18644;48.700;9.210;2023-05-10T07:48:49;0.55;;;0.55;;
32138;SDS011;18644;48.700;9.210;2023-05-10T07:51:16;0.70;;;0.52;;
32138;SDS011;18644;48.700;9.210;2023-05-10T07:53:43;0.57;;;0.57;;
32138;SDS011;18644;48.700;9.210;2023-05-10T07:56:20;0.68;;;0.68;;
32138;SDS011;18644;48.700;9.210;2023-05-10T07:58:50;2.65;;;0.85;;
32138;SDS011;18644;48.700;9.210;2023-05-10T08:01:18;0.80;;;0.77;;
32138;SDS011;18644;48.700;9.210;2023-05-10T08:03:45;0.73;;;0.73;;
32138;SDS011;18644;48.700;9.210;2023-05-10T08:06:12;1.42;;;0.60;;
32138;SDS011;18644;48.700;9.210;2023-05-10T08:08:40;0.60;;;0.60;;
32138;SDS011;18644;48.700;9.210;2023-05-10T08:11:07;0.88;;;0.75;;
32138;SDS011;18644;48.700;9.210;2023-05-10T08:13:34;0.75;;;0.75;;
32138;SDS011;18644;48.700;9.210;2023-05-10T08:16:01;0.60;;;0.60;;
32138;SDS011;18644;48.700;9.210;2023-05-10T08:18:29;4.45;;;0.68;;
32138;SDS011;18644;48.700;9.210;2023-05-10T08:20:56;7.55;;;1.02;;
32138;SDS011;18644;48.700;9.210;2023-05-10T08:23:23;0.95;;;0.60;;
32138;SDS011;18644;48.700;9.210;2023-05-10T08:25:50;0.40;;;0.40;;
32138;SDS011;18644;48.700;9.210;2023-05-10T08:28:17;0.50;;;0.50;;
32138;SDS011;18644;48.700;9.210;2023-05-10T08:30:44;0.43;;;0.43;;
32138;SDS011;18644;48.700;9.210;2023-05-10T08:33:11;0.77;;;0.77;;
32138;SDS011;18644;48.700;9.210;2023-05-10T08:35:39;0.60;;;0.60;;
32138;SDS011;18644;48.700;9.210;2023-05-10T08:38:06;2.67;;;0.65;;
32138;SDS011;18644;48.700;9.210;2023-05-10T08:40:33;0.50;;;0.50;;
32138;SDS011;18644;48.700;9.210;2023-05-10T08:43:03;0.50;;;0.50;;
32138;SDS011;18644;48.700;9.210;2023-05-10T08:45:37;0.95;;;0.60;;
32138;SDS011;18644;48.700;9.210;2023-05-10T08:48:05;0.43;;;0.43;;
32138;SDS011;18644;48.700;9.210;2023-05-10T08:50:34;0.82;;;0.50;;
32138;SDS011;18644;48.700;9.210;2023-05-10T08:53:05;0.75;;;0.40;;
32138;SDS011;18644;48.700;9.210;2023-05-10T08:55:35;0.40;;;0.40;;
32138;SDS011;18644;48.700;9.210;2023-05-10T08:58:03;0.40;;;0.40;;
32138;SDS011;18644;48.700;9.210;2023-05-10T09:00:31;0.57;;;0.55;;
32138;SDS011;18644;48.700;9.210;2023-05-10T09:02:58;0.50;;;0.50;;
32138;SDS011;18644;48.700;9.210;2023-05-10T09:05:25;0.50;;;0.50;;
32138;SDS011;18644;48.700;9.210;2023-05-10T09:07:53;0.60;;;0.60;;
32138;SDS011;18644;48.700;9.210;2023-05-10T09:10:21;2.85;;;0.50;;
32138;SDS011;18644;48.700;9.210;2023-05-10T09:12:52;0.55;;;0.55;;
32138;SDS011;18644;48.700;9.210;2023-05-10T09:15:22;0.50;;;0.50;;
32138;SDS011;18644;48.700;9.210;2023-05-10T09:17:49;0.40;;;0.40;;
32138;SDS011;18644;48.700;9.210;2023-05-10T09:20:16;0.45;;;0.45;;
32138;SDS011;18644;48.700;9.210;2023-05-10T09:22:43;0.40;;;0.40;;
32138;SDS011;18644;48.700;9.210;2023-05-10T09:25:11;0.95;;;0.50;;
32138;SDS011;18644;48.700;9.210;2023-05-10T09:27:43;2.25;;;0.60;;
32138;SDS011;18644;48.700;9.210;2023-05-10T09:30:14;0.40;;;0.40;;
32138;SDS011;18644;48.700;9.210;2023-05-10T09:32:44;0.63;;;0.40;;
32138;SDS011;18644;48.700;9.210;2023-05-10T09:35:15;0.40;;;0.40;;
32138;SDS011;18644;48.700;9.210;2023-05-10T09:37:43;0.43;;;0.40;;
32138;SDS011;18644;48.700;9.210;2023-05-10T09:40:13;0.95;;;0.50;;
32138;SDS011;18644;48.700;9.210;2023-05-10T09:42:52;0.40;;;0.40;;
32138;SDS011;18644;48.700;9.210;2023-05-10T09:45:23;0.40;;;0.40;;
32138;SDS011;18644;48.700;9.210;2023-05-10T09:47:52;0.40;;;0.40;;
32138;SDS011;18644;48.700;9.210;2023-05-10T09:50:19;0.88;;;0.50;;
32138;SDS011;18644;48.700;9.210;2023-05-10T09:52:48;1.67;;;0.40;;
32138;SDS011;18644;48.700;9.210;2023-05-10T09:55:17;0.43;;;0.40;;
32138;SDS011;18644;48.700;9.210;2023-05-10T09:57:48;0.40;;;0.40;;
32138;SDS011;18644;48.700;9.210;2023-05-10T10:00:16;0.60;;;0.60;;
32138;SDS011;18644;48.700;9.210;2023-05-10T10:02:45;0.43;;;0.43;;
32138;SDS011;18644;48.700;9.210;2023-05-10T10:05:14;0.40;;;0.40;;
32138;SDS011;18644;48.700;9.210;2023-05-10T10:07:41;0.40;;;0.40;;
32138;SDS011;18644;48.700;9.210;2023-05-10T10:10:08;0.80;;;0.55;;
32138;SDS011;18644;48.700;9.210;2023-05-10T10:12:37;1.63;;;0.38;;
32138;SDS011;18644;48.700;9.210;2023-05-10T10:15:08;0.90;;;0.50;;
32138;SDS011;18644;48.700;9.210;2023-05-10T10:17:36;0.80;;;0.47;;
32138;SDS011;18644;48.700;9.210;2023-05-10T10:20:05;1.65;;;0.57;;
32138;SDS011;18644;48.700;9.210;2023-05-10T10:22:33;0.50;;;0.50;;
32138;SDS011;18644;48.700;9.210;2023-05-10T10:25:00;0.30;;;0.30;;
32138;SDS011;18644;48.700;9.210;2023-05-10T10:27:28;0.63;;;0.52;;
32138;SDS011;18644;48.700;9.210;2023-05-10T10:30:11;0.30;;;0.30;;
32138;SDS011;18644;48.700;9.210;2023-05-10T10:32:54;0.50;;;0.40;;
32138;SDS011;18644;48.700;9.210;2023-05-10T10:35:37;0.32;;;0.32;;
32138;SDS011;18644;48.700;9.210;2023-05-10T10:38:07;2.60;;;0.50;;
32138;SDS011;18644;48.700;9.210;2023-05-10T10:40:34;0.63;;;0.40;;
32138;SDS011;18644;48.700;9.210;2023-05-10T10:45:50;0.38;;;0.38;;
32138;SDS011;18644;48.700;9.210;2023-05-10T10:48:37;1.23;;;0.38;;
32138;SDS011;18644;48.700;9.210;2023-05-10T10:51:04;0.40;;;0.40;;
32138;SDS011;18644;48.700;9.210;2023-05-10T10:53:31;0.40;;;0.40;;
32138;SDS011;18644;48.700;9.210;2023-05-10T10:56:05;6.13;;;0.50;;
32138;SDS011;18644;48.700;9.210;2023-05-10T10:58:34;0.40;;;0.40;;
32138;SDS011;18644;48.700;9.210;2023-05-10T11:01:15;0.50;;;0.40;;
32138;SDS011;18644;48.700;9.210;2023-05-10T11:03:55;1.50;;;0.50;;
32138;SDS011;18644;48.700;9.210;2023-05-10T11:06:45;0.70;;;0.50;;
32138;SDS011;18644;48.700;9.210;2023-05-10T11:09:12;0.90;;;0.35;;
32138;SDS011;18644;48.700;9.210;2023-05-10T11:11:49;0.55;;;0.40;;
32138;SDS011;18644;48.700;9.210;2023-05-10T11:14:20;1.00;;;0.40;;
32138;SDS011;18644;48.700;9.210;2023-05-10T11:16:49;1.02;;;0.40;;
32138;SDS011;18644;48.700;9.210;2023-05-10T11:19:17;0.40;;;0.40;;
32138;SDS011;18644;48.700;9.210;2023-05-10T11:21:46;0.80;;;0.52;;
32138;SDS011;18644;48.700;9.210;2023-05-10T11:24:15;1.23;;;0.45;;
32138;SDS011;18644;48.700;9.210;2023-05-10T11:26:43;0.98;;;0.43;;
32138;SDS011;18644;48.700;9.210;2023-05-10T11:29:12;1.58;;;0.65;;
32138;SDS011;18644;48.700;9.210;2023-05-10T11:31:42;0.50;;;0.50;;
32138;SDS011;18644;48.700;9.210;2023-05-10T11:34:13;0.70;;;0.45;;
32138;SDS011;18644;48.700;9.210;2023-05-10T11:36:51;0.68;;;0.47;;
32138;SDS011;18644;48.700;9.210;2023-05-10T11:39:19;0.70;;;0.40;;
32138;SDS011;18644;48.700;9.210;2023-05-10T11:41:49;1.50;;;0.60;;
32138;SDS011;18644;48.700;9.210;2023-05-10T11:44:16;0.50;;;0.40;;
32138;SDS011;18644;48.700;9.210;2023-05-10T11:46:43;0.40;;;0.40;;
32138;SDS011;18644;48.700;9.210;2023-05-10T11:49:10;1.90;;;0.77;;
32138;SDS011;18644;48.700;9.210;2023-05-10T11:51:38;0.40;;;0.40;;
32138;SDS011;18644;48.700;9.210;2023-05-10T11:54:07;0.57;;;0.50;;
32138;SDS011;18644;48.700;9.210;2023-05-10T11:56:36;0.50;;;0.50;;
32138;SDS011;18644;48.700;9.210;2023-05-10T11:59:03;1.33;;;0.60;;
32138;SDS011;18644;48.700;9.210;2023-05-10T12:01:30;1.10;;;0.57;;
32138;SDS011;18644;48.700;9.210;2023-05-10T12:03:58;0.80;;;0.80;;
32138;SDS011;18644;48.700;9.210;2023-05-10T12:06:28;0.68;;;0.55;;
32138;SDS011;18644;48.700;9.210;2023-05-10T12:08:59;1.60;;;0.50;;
32138;SDS011;18644;48.700;9.210;2023-05-10T12:11:32;0.40;;;0.40;;
32138;SDS011;18644;48.700;9.210;2023-05-10T12:14:03;1.07;;;0.60;;
32138;SDS011;18644;48.700;9.210;2023-05-10T12:16:31;1.15;;;0.40;;
32138;SDS011;18644;48.700;9.210;2023-05-10T12:18:58;0.40;;;0.40;;
32138;SDS011;18644;48.700;9.210;2023-05-10T12:21:28;1.75;;;0.60;;
32138;SDS011;18644;48.700;9.210;2023-05-10T12:23:59;0.50;;;0.50;;
32138;SDS011;18644;48.700;9.210;2023-05-10T12:26:28;0.82;;;0.52;;
32138;SDS011;18644;48.700;9.210;2023-05-10T12:29:11;0.50;;;0.50;;
32138;SDS011;18644;48.700;9.210;2023-05-10T12:31:48;0.50;;;0.50;;
32138;SDS011;18644;48.700;9.210;2023-05-10T12:34:22;0.65;;;0.40;;
32138;SDS011;18644;48.700;9.210;2023-05-10T12:36:54;0.50;;;0.50;;
32138;SDS011;18644;48.700;9.210;2023-05-10T12:39:21;1.13;;;0.50;;
32138;SDS011;18644;48.700;9.210;2023-05-10T12:41:48;0.77;;;0.50;;
32138;SDS011;18644;48.700;9.210;2023-05-10T12:44:15;0.88;;;0.50;;
32138;SDS011;18644;48.700;9.210;2023-05-10T12:46:42;1.02;;;0.47;;
32138;SDS011;18644;48.700;9.210;2023-05-10T12:49:09;0.55;;;0.55;;
32138;SDS011;18644;48.700;9.210;2023-05-10T12:51:36;0.60;;;0.50;;
32138;SDS011;18644;48.700;9.210;2023-05-10T12:54:04;0.77;;;0.52;;
32138;SDS011;18644;48.700;9.210;2023-05-10T12:56:31;1.02;;;0.60;;
32138;SDS011;18644;48.700;9.210;2023-05-10T12:58:58;1.25;;;0.40;;
32138;SDS011;18644;48.700;9.210;2023-05-10T13:01:25;1.23;;;0.55;;
32138;SDS011;18644;48.700;9.210;2023-05-10T13:03:51;1.95;;;0.82;;
32138;SDS011;18644;48.700;9.210;2023-05-10T13:06:18;1.35;;;0.52;;
32138;SDS011;18644;48.700;9.210;2023-05-10T13:08:45;1.15;;;0.50;;
32138;SDS011;18644;48.700;9.210;2023-05-10T13:11:13;0.80;;;0.50;;
32138;SDS011;18644;48.700;9.210;2023-05-10T13:13:41;0.77;;;0.60;;
32138;SDS011;18644;48.700;9.210;2023-05-10T13:16:08;0.95;;;0.60;;
32138;SDS011;18644;48.700;9.210;2023-05-10T13:18:35;0.88;;;0.50;;
32138;SDS011;18644;48.700;9.210;2023-05-10T13:21:02;0.50;;;0.50;;
32138;SDS011;18644;48.700;9.210;2023-05-10T13:23:30;0.50;;;0.50;;
32138;SDS011;18644;48.700;9.210;2023-05-10T13:25:57;1.05;;;0.45;;
32138;SDS011;18644;48.700;9.210;2023-05-10T13:28:25;0.93;;;0.60;;
32138;SDS011;18644;48.700;9.210;2023-05-10T13:30:52;2.10;;;0.65;;
32138;SDS011;18644;48.700;9.210;2023-05-10T13:33:19;0.85;;;0.50;;
32138;SDS011;18644;48.700;9.210;2023-05-10T13:35:46;1.42;;;0.50;;
32138;SDS011;18644;48.700;9.210;2023-05-10T13:38:13;1.20;;;0.60;;
32138;SDS011;18644;48.700;9.210;2023-05-10T13:40:39;0.68;;;0.55;;
32138;SDS011;18644;48.700;9.210;2023-05-10T13:43:06;0.68;;;0.60;;
32138;SDS011;18644;48.700;9.210;2023-05-10T13:45:35;1.42;;;0.57;;
32138;SDS011;18644;48.700;9.210;2023-05-10T13:48:01;0.85;;;0.40;;
32138;SDS011;18644;48.700;9.210;2023-05-10T13:50:29;1.50;;;0.55;;
32138;SDS011;18644;48.700;9.210;2023-05-10T13:52:56;0.70;;;0.43;;
32138;SDS011;18644;48.700;9.210;2023-05-10T13:55:23;0.60;;;0.60;;
32138;SDS011;18644;48.700;9.210;2023-05-10T13:57:50;1.85;;;0.57;;
32138;SDS011;18644;48.700;9.210;2023-05-10T14:00:17;0.73;;;0.50;;
32138;SDS011;18644;48.700;9.210;2023-05-10T14:02:45;0.65;;;0.60;;
32138;SDS011;18644;48.700;9.210;2023-05-10T14:05:12;1.13;;;0.63;;
32138;SDS011;18644;48.700;9.210;2023-05-10T14:07:39;0.65;;;0.50;;
32138;SDS011;18644;48.700;9.210;2023-05-10T14:10:06;0.80;;;0.65;;
32138;SDS011;18644;48.700;9.210;2023-05-10T14:12:34;0.80;;;0.60;;
32138;SDS011;18644;48.700;9.210;2023-05-10T14:15:01;0.60;;;0.60;;
32138;SDS011;18644;48.700;9.210;2023-05-10T14:17:30;1.33;;;0.98;;
32138;SDS011;18644;48.700;9.210;2023-05-10T14:19:59;0.50;;;0.40;;
32138;SDS011;18644;48.700;9.210;2023-05-10T14:22:25;1.38;;;0.55;;
32138;SDS011;18644;48.700;9.210;2023-05-10T14:24:52;1.58;;;0.63;;
32138;SDS011;18644;48.700;9.210;2023-05-10T14:27:19;0.65;;;0.57;;
32138;SDS011;18644;48.700;9.210;2023-05-10T14:29:46;5.68;;;0.80;;
32138;SDS011;18644;48.700;9.210;2023-05-10T14:32:13;0.52;;;0.52;;
32138;SDS011;18644;48.700;9.210;2023-05-10T14:34:40;2.70;;;0.60;;
32138;SDS011;18644;48.700;9.210;2023-05-10T14:37:09;0.77;;;0.77;;
32138;SDS011;18644;48.700;9.210;2023-05-10T14:39:36;0.60;;;0.60;;
32138;SDS011;18644;48.700;9.210;2023-05-10T14:42:04;3.40;;;0.60;;
32138;SDS011;18644;48.700;9.210;2023-05-10T14:44:31;0.60;;;0.60;;
32138;SDS011;18644;48.700;9.210;2023-05-10T14:46:58;1.10;;;0.65;;
32138;SDS011;18644;48.700;9.210;2023-05-10T14:49:24;2.10;;;0.80;;
32138;SDS011;18644;48.700;9.210;2023-05-10T14:51:51;0.60;;;0.50;;
32138;SDS011;18644;48.700;9.210;2023-05-10T14:54:20;0.50;;;0.50;;
32138;SDS011;18644;48.700;9.210;2023-05-10T14:56:47;0.60;;;0.60;;
32138;SDS011;18644;48.700;9.210;2023-05-10T14:59:14;1.05;;;0.43;;
32138;SDS011;18644;48.700;9.210;2023-05-10T15:01:41;2.53;;;0.60;;
32138;SDS011;18644;48.700;9.210;2023-05-10T15:04:08;3.17;;;0.73;;
32138;SDS011;18644;48.700;9.210;2023-05-10T15:06:35;0.75;;;0.65;;